sensor_id;sensor_type;location;lat;lon;timestamp;P1;durP1;ratioP1;P2;durP2;ratioP2
14799;SDS011;7491;57.750;11.970;2023-07-28T00:00:23;5.22;;;3.25;;
14799;SDS011;7491;57.750;11.970;2023-07-28T00:02:50;7.28;;;3.20;;
14799;SDS011;7491;57.750;11.970;2023-07-28T00:05:17;7.53;;;3.40;;
14799;SDS011;7491;57.750;11.970;2023-07-28T00:07:43;7.20;;;3.20;;
14799;SDS011;7491;57.750;11.970;2023-07-28T00:10:10;4.95;;;3.60;;
14799;SDS011;7491;57.750;11.970;2023-07-28T00:12:37;6.32;;;3.90;;
14799;SDS011;7491;57.750;11.970;2023-07-28T00:15:04;6.47;;;3.70;;
14799;SDS011;7491;57.750;11.970;2023-07-28T00:17:33;5.72;;;3.72;;
14799;SDS011;7491;57.750;11.970;2023-07-28T00:20:00;7.65;;;3.47;;
14799;SDS011;7491;57.750;11.970;2023-07-28T00:22:27;5.43;;;3.55;;
14799;SDS011;7491;57.750;11.970;2023-07-28T00:24:54;6.30;;;4.10;;
14799;SDS011;7491;57.750;11.970;2023-07-28T00:27:21;9.90;;;3.55;;
14799;SDS011;7491;57.750;11.970;2023-07-28T00:29:48;6.38;;;3.38;;
14799;SDS011;7491;57.750;11.970;2023-07-28T00:32:16;5.63;;;3.50;;
14799;SDS011;7491;57.750;11.970;2023-07-28T00:34:44;5.38;;;3.88;;
14799;SDS011;7491;57.750;11.970;2023-07-28T00:37:11;4.75;;;3.40;;
14799;SDS011;7491;57.750;11.970;2023-07-28T00:39:38;5.28;;;3.47;;
14799;SDS011;7491;57.750;11.970;2023-07-28T00:42:05;7.43;;;3.50;;
14799;SDS011;7491;57.750;11.970;2023-07-28T00:44:35;5.90;;;3.78;;
14799;SDS011;7491;57.750;11.970;2023-07-28T00:47:01;7.95;;;4.18;;
14799;SDS011;7491;57.750;11.970;2023-07-28T00:49:29;8.18;;;4.75;;
14799;SDS011;7491;57.750;11.970;2023-07-28T00:51:58;6.75;;;4.32;;
14799;SDS011;7491;57.750;11.970;2023-07-28T00:54:25;7.03;;;4.35;;
14799;SDS011;7491;57.750;11.970;2023-07-28T00:56:52;6.43;;;3.83;;
14799;SDS011;7491;57.750;11.970;2023-07-28T00:59:19;6.15;;;4.00;;
14799;SDS011;7491;57.750;11.970;2023-07-28T01:01:47;9.32;;;3.72;;
14799;SDS011;7491;57.750;11.970;2023-07-28T01:04:13;7.60;;;3.83;;
14799;SDS011;7491;57.750;11.970;2023-07-28T01:06:41;5.28;;;3.70;;
14799;SDS011;7491;57.750;11.970;2023-07-28T01:09:16;7.30;;;3.75;;
14799;SDS011;7491;57.750;11.970;2023-07-28T01:11:53;7.10;;;3.90;;
14799;SDS011;7491;57.750;11.970;2023-07-28T01:14:20;4.30;;;3.90;;
14799;SDS011;7491;57.750;11.970;2023-07-28T01:16:48;7.05;;;4.05;;
14799;SDS011;7491;57.750;11.970;2023-07-28T01:19:15;6.72;;;3.70;;
14799;SDS011;7491;57.750;11.970;2023-07-28T01:21:43;5.00;;;3.60;;
14799;SDS011;7491;57.750;11.970;2023-07-28T01:24:14;4.70;;;3.35;;
14799;SDS011;7491;57.750;11.970;2023-07-28T01:26:55;9.25;;;3.83;;
14799;SDS011;7491;57.750;11.970;2023-07-28T01:29:22;7.60;;;4.30;;
14799;SDS011;7491;57.750;11.970;2023-07-28T01:31:51;6.68;;;3.90;;
14799;SDS011;7491;57.750;11.970;2023-07-28T01:34:18;6.82;;;4.38;;
14799;SDS011;7491;57.750;11.970;2023-07-28T01:36:45;11.18;;;4.32;;
14799;SDS011;7491;57.750;11.970;2023-07-28T01:39:11;6.63;;;3.70;;
14799;SDS011;7491;57.750;11.970;2023-07-28T01:41:38;7.15;;;3.95;;
14799;SDS011;7491;57.750;11.970;2023-07-28T01:44:10;5.47;;;3.28;;
14799;SDS011;7491;57.750;11.970;2023-07-28T01:46:36;9.07;;;3.92;;
14799;SDS011;7491;57.750;11.970;2023-07-28T01:49:04;5.10;;;3.97;;
14799;SDS011;7491;57.750;11.970;2023-07-28T01:51:31;6.07;;;3.97;;
14799;SDS011;7491;57.750;11.970;2023-07-28T01:53:58;6.88;;;3.35;;
14799;SDS011;7491;57.750;11.970;2023-07-28T01:56:25;5.78;;;3.80;;
14799;SDS011;7491;57.750;11.970;2023-07-28T01:58:51;6.25;;;3.90;;
14799;SDS011;7491;57.750;11.970;2023-07-28T02:01:20;3.70;;;3.40;;
14799;SDS011;7491;57.750;11.970;2023-07-28T02:03:47;8.35;;;3.80;;
14799;SDS011;7491;57.750;11.970;2023-07-28T02:06:14;7.53;;;3.95;;
14799;SDS011;7491;57.750;11.970;2023-07-28T02:08:49;5.47;;;3.33;;
14799;SDS011;7491;57.750;11.970;2023-07-28T02:11:16;4.85;;;3.50;;
14799;SDS011;7491;57.750;11.970;2023-07-28T02:13:43;3.90;;;3.00;;
14799;SDS011;7491;57.750;11.970;2023-07-28T02:16:10;8.05;;;3.70;;
14799;SDS011;7491;57.750;11.970;2023-07-28T02:18:40;6.03;;;3.22;;
14799;SDS011;7491;57.750;11.970;2023-07-28T02:21:07;6.65;;;3.38;;
14799;SDS011;7491;57.750;11.970;2023-07-28T02:23:34;7.28;;;3.60;;
14799;SDS011;7491;57.750;11.970;2023-07-28T02:26:01;3.95;;;3.13;;
14799;SDS011;7491;57.750;11.970;2023-07-28T02:28:29;5.20;;;3.05;;
14799;SDS011;7491;57.750;11.970;2023-07-28T02:30:55;5.30;;;3.65;;
14799;SDS011;7491;57.750;11.970;2023-07-28T02:33:22;4.10;;;3.58;;
14799;SDS011;7491;57.750;11.970;2023-07-28T02:35:51;7.60;;;3.30;;
14799;SDS011;7491;57.750;11.970;2023-07-28T02:38:18;5.95;;;3.53;;
14799;SDS011;7491;57.750;11.970;2023-07-28T02:40:44;5.38;;;3.38;;
14799;SDS011;7491;57.750;11.970;2023-07-28T02:43:11;5.93;;;3.50;;
14799;SDS011;7491;57.750;11.970;2023-07-28T02:45:37;5.22;;;3.80;;
14799;SDS011;7491;57.750;11.970;2023-07-28T02:48:04;8.98;;;4.38;;
14799;SDS011;7491;57.750;11.970;2023-07-28T02:50:31;4.93;;;3.40;;
14799;SDS011;7491;57.750;11.970;2023-07-28T02:52:59;11.45;;;4.55;;
14799;SDS011;7491;57.750;11.970;2023-07-28T02:55:26;6.22;;;4.07;;
14799;SDS011;7491;57.750;11.970;2023-07-28T02:57:53;5.80;;;3.92;;
14799;SDS011;7491;57.750;11.970;2023-07-28T03:00:20;9.27;;;4.07;;
14799;SDS011;7491;57.750;11.970;2023-07-28T03:02:47;6.45;;;3.97;;
14799;SDS011;7491;57.750;11.970;2023-07-28T03:05:14;6.05;;;3.63;;
14799;SDS011;7491;57.750;11.970;2023-07-28T03:07:40;5.03;;;3.72;;
14799;SDS011;7491;57.750;11.970;2023-07-28T03:10:09;5.85;;;4.30;;
14799;SDS011;7491;57.750;11.970;2023-07-28T03:12:41;4.50;;;3.55;;
14799;SDS011;7491;57.750;11.970;2023-07-28T03:15:08;6.60;;;4.00;;
14799;SDS011;7491;57.750;11.970;2023-07-28T03:17:35;9.73;;;5.30;;
14799;SDS011;7491;57.750;11.970;2023-07-28T03:20:02;5.43;;;4.20;;
14799;SDS011;7491;57.750;11.970;2023-07-28T03:22:29;11.27;;;4.65;;
14799;SDS011;7491;57.750;11.970;2023-07-28T03:24:56;8.27;;;5.05;;
14799;SDS011;7491;57.750;11.970;2023-07-28T03:27:25;7.28;;;4.72;;
14799;SDS011;7491;57.750;11.970;2023-07-28T03:29:51;6.03;;;4.18;;
14799;SDS011;7491;57.750;11.970;2023-07-28T03:32:18;8.05;;;4.95;;
14799;SDS011;7491;57.750;11.970;2023-07-28T03:34:45;10.38;;;4.60;;
14799;SDS011;7491;57.750;11.970;2023-07-28T03:37:12;6.20;;;4.20;;
14799;SDS011;7491;57.750;11.970;2023-07-28T03:39:38;9.52;;;4.13;;
14799;SDS011;7491;57.750;11.970;2023-07-28T03:42:05;4.55;;;4.15;;
14799;SDS011;7491;57.750;11.970;2023-07-28T03:44:34;6.93;;;4.45;;
14799;SDS011;7491;57.750;11.970;2023-07-28T03:47:02;6.88;;;4.47;;
14799;SDS011;7491;57.750;11.970;2023-07-28T03:49:29;5.15;;;4.10;;
14799;SDS011;7491;57.750;11.970;2023-07-28T03:51:56;11.63;;;4.55;;
14799;SDS011;7491;57.750;11.970;2023-07-28T03:54:23;7.85;;;4.35;;
14799;SDS011;7491;57.750;11.970;2023-07-28T03:56:50;7.45;;;4.38;;
14799;SDS011;7491;57.750;11.970;2023-07-28T03:59:17;6.43;;;3.90;;
14799;SDS011;7491;57.750;11.970;2023-07-28T04:01:45;5.43;;;4.18;;
14799;SDS011;7491;57.750;11.970;2023-07-28T04:04:12;6.78;;;4.03;;
14799;SDS011;7491;57.750;11.970;2023-07-28T04:06:40;6.57;;;3.90;;
14799;SDS011;7491;57.750;11.970;2023-07-28T04:09:07;6.13;;;3.95;;
14799;SDS011;7491;57.750;11.970;2023-07-28T04:11:34;5.07;;;3.47;;
14799;SDS011;7491;57.750;11.970;2023-07-28T04:14:01;7.40;;;3.80;;
14799;SDS011;7491;57.750;11.970;2023-07-28T04:16:28;9.18;;;3.55;;
14799;SDS011;7491;57.750;11.970;2023-07-28T04:18:56;6.85;;;3.90;;
14799;SDS011;7491;57.750;11.970;2023-07-28T04:21:23;5.47;;;3.67;;
14799;SDS011;7491;57.750;11.970;2023-07-28T04:23:50;7.80;;;3.47;;
14799;SDS011;7491;57.750;11.970;2023-07-28T04:26:18;4.68;;;4.03;;
14799;SDS011;7491;57.750;11.970;2023-07-28T04:28:45;7.80;;;3.80;;
14799;SDS011;7491;57.750;11.970;2023-07-28T04:31:11;4.63;;;3.55;;
14799;SDS011;7491;57.750;11.970;2023-07-28T04:33:40;9.25;;;4.10;;
14799;SDS011;7491;57.750;11.970;2023-07-28T04:36:09;7.15;;;3.45;;
14799;SDS011;7491;57.750;11.970;2023-07-28T04:38:36;4.63;;;3.75;;
14799;SDS011;7491;57.750;11.970;2023-07-28T04:41:03;6.82;;;4.05;;
14799;SDS011;7491;57.750;11.970;2023-07-28T04:43:29;7.75;;;3.65;;
14799;SDS011;7491;57.750;11.970;2023-07-28T04:45:56;7.65;;;4.20;;
14799;SDS011;7491;57.750;11.970;2023-07-28T04:48:23;7.63;;;4.28;;
14799;SDS011;7491;57.750;11.970;2023-07-28T04:50:50;7.78;;;4.03;;
14799;SDS011;7491;57.750;11.970;2023-07-28T04:53:18;7.75;;;4.45;;
14799;SDS011;7491;57.750;11.970;2023-07-28T04:55:45;6.20;;;4.40;;
14799;SDS011;7491;57.750;11.970;2023-07-28T04:58:12;9.30;;;4.63;;
14799;SDS011;7491;57.750;11.970;2023-07-28T05:00:38;8.18;;;3.97;;
14799;SDS011;7491;57.750;11.970;2023-07-28T05:03:05;8.00;;;3.63;;
14799;SDS011;7491;57.750;11.970;2023-07-28T05:05:32;7.95;;;4.75;;
14799;SDS011;7491;57.750;11.970;2023-07-28T05:07:59;4.55;;;4.07;;
14799;SDS011;7491;57.750;11.970;2023-07-28T05:10:27;6.72;;;4.10;;
14799;SDS011;7491;57.750;11.970;2023-07-28T05:12:54;7.40;;;4.47;;
14799;SDS011;7491;57.750;11.970;2023-07-28T05:15:21;8.27;;;3.58;;
14799;SDS011;7491;57.750;11.970;2023-07-28T05:17:51;5.82;;;3.70;;
14799;SDS011;7491;57.750;11.970;2023-07-28T05:20:18;4.47;;;3.78;;
14799;SDS011;7491;57.750;11.970;2023-07-28T05:22:44;6.68;;;3.75;;
14799;SDS011;7491;57.750;11.970;2023-07-28T05:25:11;4.30;;;3.90;;
14799;SDS011;7491;57.750;11.970;2023-07-28T05:27:40;8.02;;;3.80;;
14799;SDS011;7491;57.750;11.970;2023-07-28T05:30:07;3.92;;;3.42;;
14799;SDS011;7491;57.750;11.970;2023-07-28T05:32:34;4.00;;;3.58;;
14799;SDS011;7491;57.750;11.970;2023-07-28T05:35:01;5.80;;;3.45;;
14799;SDS011;7491;57.750;11.970;2023-07-28T05:37:28;12.30;;;4.15;;
14799;SDS011;7491;57.750;11.970;2023-07-28T05:39:55;6.43;;;3.60;;
14799;SDS011;7491;57.750;11.970;2023-07-28T05:42:21;5.03;;;3.40;;
14799;SDS011;7491;57.750;11.970;2023-07-28T05:44:50;5.40;;;3.63;;
14799;SDS011;7491;57.750;11.970;2023-07-28T05:47:20;7.10;;;3.70;;
14799;SDS011;7491;57.750;11.970;2023-07-28T05:49:47;3.75;;;3.35;;
14799;SDS011;7491;57.750;11.970;2023-07-28T05:52:13;5.03;;;3.78;;
14799;SDS011;7491;57.750;11.970;2023-07-28T05:54:40;4.90;;;3.92;;
14799;SDS011;7491;57.750;11.970;2023-07-28T05:57:07;3.72;;;3.28;;
14799;SDS011;7491;57.750;11.970;2023-07-28T05:59:33;6.32;;;3.25;;
14799;SDS011;7491;57.750;11.970;2023-07-28T06:02:02;5.22;;;3.50;;
14799;SDS011;7491;57.750;11.970;2023-07-28T06:04:29;5.00;;;2.83;;
14799;SDS011;7491;57.750;11.970;2023-07-28T06:06:56;7.90;;;2.88;;
14799;SDS011;7491;57.750;11.970;2023-07-28T06:09:23;3.30;;;2.83;;
14799;SDS011;7491;57.750;11.970;2023-07-28T06:11:50;5.18;;;3.35;;
14799;SDS011;7491;57.750;11.970;2023-07-28T06:14:17;4.50;;;2.75;;
14799;SDS011;7491;57.750;11.970;2023-07-28T06:16:44;3.30;;;3.00;;
14799;SDS011;7491;57.750;11.970;2023-07-28T06:19:13;2.95;;;2.70;;
14799;SDS011;7491;57.750;11.970;2023-07-28T06:21:42;6.80;;;3.08;;
14799;SDS011;7491;57.750;11.970;2023-07-28T06:24:09;3.13;;;2.28;;
14799;SDS011;7491;57.750;11.970;2023-07-28T06:26:42;2.97;;;2.17;;
14799;SDS011;7491;57.750;11.970;2023-07-28T06:29:24;4.25;;;2.45;;
14799;SDS011;7491;57.750;11.970;2023-07-28T06:31:55;5.10;;;2.38;;
14799;SDS011;7491;57.750;11.970;2023-07-28T06:34:31;3.20;;;2.50;;
14799;SDS011;7491;57.750;11.970;2023-07-28T06:36:58;3.53;;;2.83;;
14799;SDS011;7491;57.750;11.970;2023-07-28T06:39:24;4.55;;;2.38;;
14799;SDS011;7491;57.750;11.970;2023-07-28T06:41:52;2.85;;;2.20;;
14799;SDS011;7491;57.750;11.970;2023-07-28T06:44:19;3.05;;;2.10;;
14799;SDS011;7491;57.750;11.970;2023-07-28T06:46:45;3.05;;;1.98;;
14799;SDS011;7491;57.750;11.970;2023-07-28T06:49:13;3.97;;;2.17;;
14799;SDS011;7491;57.750;11.970;2023-07-28T06:51:42;2.22;;;1.95;;
14799;SDS011;7491;57.750;11.970;2023-07-28T06:54:09;2.58;;;2.03;;
14799;SDS011;7491;57.750;11.970;2023-07-28T06:56:37;3.47;;;1.70;;
14799;SDS011;7491;57.750;11.970;2023-07-28T06:59:04;2.10;;;1.90;;
14799;SDS011;7491;57.750;11.970;2023-07-28T07:01:31;1.80;;;1.55;;
14799;SDS011;7491;57.750;11.970;2023-07-28T07:03:58;1.50;;;1.40;;
14799;SDS011;7491;57.750;11.970;2023-07-28T07:06:25;4.65;;;1.70;;
14799;SDS011;7491;57.750;11.970;2023-07-28T07:08:54;1.60;;;1.45;;
14799;SDS011;7491;57.750;11.970;2023-07-28T07:11:21;3.55;;;1.83;;
14799;SDS011;7491;57.750;11.970;2023-07-28T07:13:47;2.67;;;1.40;;
14799;SDS011;7491;57.750;11.970;2023-07-28T07:16:14;3.33;;;1.60;;
14799;SDS011;7491;57.750;11.970;2023-07-28T07:18:42;3.63;;;1.52;;
14799;SDS011;7491;57.750;11.970;2023-07-28T07:21:09;2.17;;;1.98;;
14799;SDS011;7491;57.750;11.970;2023-07-28T07:23:36;2.15;;;1.40;;
14799;SDS011;7491;57.750;11.970;2023-07-28T07:26:04;1.85;;;1.55;;
14799;SDS011;7491;57.750;11.970;2023-07-28T07:28:32;2.88;;;1.60;;
14799;SDS011;7491;57.750;11.970;2023-07-28T07:31:00;2.28;;;1.55;;
14799;SDS011;7491;57.750;11.970;2023-07-28T07:33:28;2.55;;;1.77;;
14799;SDS011;7491;57.750;11.970;2023-07-28T07:35:55;1.52;;;1.20;;
14799;SDS011;7491;57.750;11.970;2023-07-28T07:38:22;2.20;;;1.48;;
14799;SDS011;7491;57.750;11.970;2023-07-28T07:40:49;1.45;;;1.35;;
14799;SDS011;7491;57.750;11.970;2023-07-28T07:43:17;2.88;;;1.48;;
14799;SDS011;7491;57.750;11.970;2023-07-28T07:45:45;3.35;;;1.50;;
14799;SDS011;7491;57.750;11.970;2023-07-28T07:48:15;4.43;;;1.50;;
14799;SDS011;7491;57.750;11.970;2023-07-28T07:50:41;1.63;;;1.40;;
14799;SDS011;7491;57.750;11.970;2023-07-28T07:53:09;1.92;;;1.40;;
14799;SDS011;7491;57.750;11.970;2023-07-28T07:55:36;2.47;;;1.70;;
14799;SDS011;7491;57.750;11.970;2023-07-28T07:58:03;2.33;;;1.30;;
14799;SDS011;7491;57.750;11.970;2023-07-28T08:00:36;3.25;;;1.75;;
14799;SDS011;7491;57.750;11.970;2023-07-28T08:03:09;3.38;;;1.45;;
14799;SDS011;7491;57.750;11.970;2023-07-28T08:05:48;3.35;;;1.45;;
14799;SDS011;7491;57.750;11.970;2023-07-28T08:08:23;4.68;;;1.45;;
14799;SDS011;7491;57.750;11.970;2023-07-28T08:10:55;2.70;;;1.40;;
14799;SDS011;7491;57.750;11.970;2023-07-28T08:13:49;2.17;;;1.42;;
14799;SDS011;7491;57.750;11.970;2023-07-28T08:16:20;3.08;;;1.52;;
14799;SDS011;7491;57.750;11.970;2023-07-28T08:18:47;1.83;;;1.38;;
14799;SDS011;7491;57.750;11.970;2023-07-28T08:21:14;2.40;;;1.25;;
14799;SDS011;7491;57.750;11.970;2023-07-28T08:23:44;2.55;;;1.40;;
14799;SDS011;7491;57.750;11.970;2023-07-28T08:26:15;1.75;;;1.10;;
14799;SDS011;7491;57.750;11.970;2023-07-28T08:28:42;1.15;;;1.05;;
14799;SDS011;7491;57.750;11.970;2023-07-28T08:31:14;2.55;;;1.33;;
14799;SDS011;7491;57.750;11.970;2023-07-28T08:33:47;1.63;;;1.33;;
14799;SDS011;7491;57.750;11.970;2023-07-28T08:36:16;1.55;;;1.45;;
14799;SDS011;7491;57.750;11.970;2023-07-28T08:38:43;2.25;;;1.30;;
14799;SDS011;7491;57.750;11.970;2023-07-28T08:41:24;3.22;;;1.83;;
14799;SDS011;7491;57.750;11.970;2023-07-28T08:43:52;3.42;;;1.60;;
14799;SDS011;7491;57.750;11.970;2023-07-28T08:46:19;1.60;;;1.50;;
14799;SDS011;7491;57.750;11.970;2023-07-28T08:48:48;2.17;;;1.52;;
14799;SDS011;7491;57.750;11.970;2023-07-28T08:51:15;1.67;;;1.35;;
14799;SDS011;7491;57.750;11.970;2023-07-28T08:53:42;3.92;;;1.58;;
14799;SDS011;7491;57.750;11.970;2023-07-28T08:56:15;2.75;;;1.40;;
14799;SDS011;7491;57.750;11.970;2023-07-28T08:59:21;2.35;;;1.42;;
14799;SDS011;7491;57.750;11.970;2023-07-28T09:01:51;1.73;;;1.30;;
14799;SDS011;7491;57.750;11.970;2023-07-28T09:04:21;3.60;;;1.60;;
14799;SDS011;7491;57.750;11.970;2023-07-28T09:06:48;1.90;;;1.30;;
14799;SDS011;7491;57.750;11.970;2023-07-28T09:09:18;1.80;;;1.50;;
14799;SDS011;7491;57.750;11.970;2023-07-28T09:11:49;6.18;;;1.85;;
14799;SDS011;7491;57.750;11.970;2023-07-28T09:14:17;1.98;;;1.60;;
14799;SDS011;7491;57.750;11.970;2023-07-28T09:16:46;1.33;;;1.20;;
14799;SDS011;7491;57.750;11.970;2023-07-28T09:19:13;1.40;;;1.30;;
14799;SDS011;7491;57.750;11.970;2023-07-28T09:21:43;1.80;;;1.30;;
14799;SDS011;7491;57.750;11.970;2023-07-28T09:24:11;1.60;;;1.50;;
14799;SDS011;7491;57.750;11.970;2023-07-28T09:26:39;1.83;;;1.58;;
14799;SDS011;7491;57.750;11.970;2023-07-28T09:29:13;3.90;;;2.00;;
14799;SDS011;7491;57.750;11.970;2023-07-28T09:31:41;1.60;;;1.50;;
14799;SDS011;7491;57.750;11.970;2023-07-28T09:34:07;1.83;;;1.52;;
14799;SDS011;7491;57.750;11.970;2023-07-28T09:36:38;1.63;;;1.50;;
14799;SDS011;7491;57.750;11.970;2023-07-28T09:39:09;1.70;;;1.58;;
14799;SDS011;7491;57.750;11.970;2023-07-28T09:41:41;1.27;;;1.25;;
14799;SDS011;7491;57.750;11.970;2023-07-28T09:44:27;2.30;;;1.40;;
14799;SDS011;7491;57.750;11.970;2023-07-28T09:46:55;1.55;;;1.40;;
14799;SDS011;7491;57.750;11.970;2023-07-28T09:49:26;1.85;;;1.55;;
14799;SDS011;7491;57.750;11.970;2023-07-28T09:51:54;2.92;;;1.45;;
14799;SDS011;7491;57.750;11.970;2023-07-28T09:54:28;1.50;;;1.40;;
14799;SDS011;7491;57.750;11.970;2023-07-28T09:56:56;1.83;;;1.60;;
14799;SDS011;7491;57.750;11.970;2023-07-28T09:59:24;1.30;;;1.20;;
14799;SDS011;7491;57.750;11.970;2023-07-28T10:01:55;2.15;;;1.40;;
14799;SDS011;7491;57.750;11.970;2023-07-28T10:04:23;2.53;;;1.40;;
14799;SDS011;7491;57.750;11.970;2023-07-28T10:06:50;1.50;;;1.30;;
14799;SDS011;7491;57.750;11.970;2023-07-28T10:09:21;2.90;;;1.90;;
14799;SDS011;7491;57.750;11.970;2023-07-28T10:11:51;1.70;;;1.60;;
14799;SDS011;7491;57.750;11.970;2023-07-28T10:14:25;2.20;;;1.48;;
14799;SDS011;7491;57.750;11.970;2023-07-28T10:16:55;1.60;;;1.50;;
14799;SDS011;7491;57.750;11.970;2023-07-28T10:19:43;2.88;;;1.70;;
14799;SDS011;7491;57.750;11.970;2023-07-28T10:22:13;1.58;;;1.42;;
14799;SDS011;7491;57.750;11.970;2023-07-28T10:24:55;1.80;;;1.60;;
14799;SDS011;7491;57.750;11.970;2023-07-28T10:27:38;1.73;;;1.60;;
14799;SDS011;7491;57.750;11.970;2023-07-28T10:30:14;1.75;;;1.50;;
14799;SDS011;7491;57.750;11.970;2023-07-28T10:32:45;1.58;;;1.45;;
14799;SDS011;7491;57.750;11.970;2023-07-28T10:35:30;2.75;;;1.48;;
14799;SDS011;7491;57.750;11.970;2023-07-28T10:38:01;1.52;;;1.42;;
14799;SDS011;7491;57.750;11.970;2023-07-28T10:41:09;1.40;;;1.30;;
14799;SDS011;7491;57.750;11.970;2023-07-28T10:43:40;1.42;;;1.30;;
14799;SDS011;7491;57.750;11.970;2023-07-28T10:46:08;1.30;;;1.20;;
14799;SDS011;7491;57.750;11.970;2023-07-28T10:48:37;2.65;;;1.50;;
14799;SDS011;7491;57.750;11.970;2023-07-28T10:51:08;1.55;;;1.40;;
14799;SDS011;7491;57.750;11.970;2023-07-28T10:53:35;3.65;;;1.73;;
14799;SDS011;7491;57.750;11.970;2023-07-28T10:56:03;2.15;;;1.40;;
14799;SDS011;7491;57.750;11.970;2023-07-28T10:58:33;2.42;;;1.60;;
14799;SDS011;7491;57.750;11.970;2023-07-28T11:01:03;2.17;;;1.33;;
14799;SDS011;7491;57.750;11.970;2023-07-28T11:03:30;1.58;;;1.20;;
14799;SDS011;7491;57.750;11.970;2023-07-28T11:06:00;2.10;;;1.02;;
14799;SDS011;7491;57.750;11.970;2023-07-28T11:08:28;2.13;;;1.00;;
14799;SDS011;7491;57.750;11.970;2023-07-28T11:10:55;1.95;;;1.20;;
14799;SDS011;7491;57.750;11.970;2023-07-28T11:13:22;1.05;;;1.05;;
14799;SDS011;7491;57.750;11.970;2023-07-28T11:15:50;2.40;;;1.00;;
14799;SDS011;7491;57.750;11.970;2023-07-28T11:18:19;1.73;;;1.30;;
14799;SDS011;7491;57.750;11.970;2023-07-28T11:20:46;0.90;;;0.90;;
14799;SDS011;7491;57.750;11.970;2023-07-28T11:23:13;1.35;;;1.02;;
14799;SDS011;7491;57.750;11.970;2023-07-28T11:25:41;1.42;;;0.98;;
14799;SDS011;7491;57.750;11.970;2023-07-28T11:28:09;1.83;;;1.00;;
14799;SDS011;7491;57.750;11.970;2023-07-28T11:30:36;2.03;;;1.13;;
14799;SDS011;7491;57.750;11.970;2023-07-28T11:33:04;1.23;;;1.00;;
14799;SDS011;7491;57.750;11.970;2023-07-28T11:35:37;1.25;;;1.15;;
14799;SDS011;7491;57.750;11.970;2023-07-28T11:38:05;1.73;;;1.20;;
14799;SDS011;7491;57.750;11.970;2023-07-28T11:40:33;0.98;;;0.90;;
14799;SDS011;7491;57.750;11.970;2023-07-28T11:43:00;1.70;;;1.00;;
14799;SDS011;7491;57.750;11.970;2023-07-28T11:45:29;2.50;;;1.05;;
14799;SDS011;7491;57.750;11.970;2023-07-28T11:47:56;1.52;;;1.20;;
14799;SDS011;7491;57.750;11.970;2023-07-28T11:50:24;1.10;;;0.90;;
14799;SDS011;7491;57.750;11.970;2023-07-28T11:52:53;1.20;;;1.10;;
14799;SDS011;7491;57.750;11.970;2023-07-28T11:55:21;1.65;;;1.25;;
14799;SDS011;7491;57.750;11.970;2023-07-28T11:57:49;1.02;;;0.93;;
14799;SDS011;7491;57.750;11.970;2023-07-28T12:00:16;1.30;;;1.20;;
14799;SDS011;7491;57.750;11.970;2023-07-28T12:02:45;2.80;;;1.15;;
14799;SDS011;7491;57.750;11.970;2023-07-28T12:05:12;1.48;;;1.25;;
14799;SDS011;7491;57.750;11.970;2023-07-28T12:07:40;0.80;;;0.80;;
14799;SDS011;7491;57.750;11.970;2023-07-28T12:10:09;0.90;;;0.90;;
14799;SDS011;7491;57.750;11.970;2023-07-28T12:12:39;1.48;;;1.10;;
14799;SDS011;7491;57.750;11.970;2023-07-28T12:15:18;2.05;;;1.10;;
14799;SDS011;7491;57.750;11.970;2023-07-28T12:20:48;1.42;;;1.20;;
14799;SDS011;7491;57.750;11.970;2023-07-28T12:23:17;1.02;;;0.95;;
14799;SDS011;7491;57.750;11.970;2023-07-28T12:25:46;1.83;;;0.88;;
14799;SDS011;7491;57.750;11.970;2023-07-28T12:28:14;1.40;;;1.30;;
14799;SDS011;7491;57.750;11.970;2023-07-28T12:30:41;2.33;;;1.30;;
14799;SDS011;7491;57.750;11.970;2023-07-28T12:33:08;2.75;;;1.10;;
14799;SDS011;7491;57.750;11.970;2023-07-28T12:35:35;1.45;;;1.10;;
14799;SDS011;7491;57.750;11.970;2023-07-28T12:38:02;2.40;;;1.20;;
14799;SDS011;7491;57.750;11.970;2023-07-28T12:40:30;1.63;;;1.23;;
14799;SDS011;7491;57.750;11.970;2023-07-28T12:42:59;2.15;;;1.30;;
14799;SDS011;7491;57.750;11.970;2023-07-28T12:45:27;2.97;;;1.25;;
14799;SDS011;7491;57.750;11.970;2023-07-28T12:47:54;2.58;;;1.23;;
14799;SDS011;7491;57.750;11.970;2023-07-28T12:50:22;1.40;;;1.27;;
14799;SDS011;7491;57.750;11.970;2023-07-28T12:52:50;4.30;;;1.75;;
14799;SDS011;7491;57.750;11.970;2023-07-28T12:55:17;3.58;;;1.52;;
14799;SDS011;7491;57.750;11.970;2023-07-28T12:57:44;3.22;;;1.30;;
14799;SDS011;7491;57.750;11.970;2023-07-28T13:00:15;3.90;;;1.38;;
14799;SDS011;7491;57.750;11.970;2023-07-28T13:02:43;2.00;;;1.33;;
14799;SDS011;7491;57.750;11.970;2023-07-28T13:05:10;2.20;;;1.52;;
14799;SDS011;7491;57.750;11.970;2023-07-28T13:07:41;2.28;;;1.60;;
14799;SDS011;7491;57.750;11.970;2023-07-28T13:10:08;1.90;;;1.52;;
14799;SDS011;7491;57.750;11.970;2023-07-28T13:12:36;1.50;;;1.02;;
14799;SDS011;7491;57.750;11.970;2023-07-28T13:15:04;1.88;;;1.40;;
14799;SDS011;7491;57.750;11.970;2023-07-28T13:17:33;2.50;;;1.60;;
14799;SDS011;7491;57.750;11.970;2023-07-28T13:20:00;1.63;;;1.45;;
14799;SDS011;7491;57.750;11.970;2023-07-28T13:22:28;3.53;;;1.52;;
14799;SDS011;7491;57.750;11.970;2023-07-28T13:24:54;1.00;;;1.00;;
14799;SDS011;7491;57.750;11.970;2023-07-28T13:27:24;1.15;;;1.15;;
14799;SDS011;7491;57.750;11.970;2023-07-28T13:29:51;1.63;;;1.30;;
14799;SDS011;7491;57.750;11.970;2023-07-28T13:32:18;1.80;;;1.40;;
14799;SDS011;7491;57.750;11.970;2023-07-28T13:34:50;1.92;;;1.73;;
14799;SDS011;7491;57.750;11.970;2023-07-28T13:37:18;2.50;;;1.48;;
14799;SDS011;7491;57.750;11.970;2023-07-28T13:39:47;1.50;;;1.40;;
14799;SDS011;7491;57.750;11.970;2023-07-28T13:42:14;1.60;;;1.50;;
14799;SDS011;7491;57.750;11.970;2023-07-28T13:44:41;1.77;;;1.38;;
14799;SDS011;7491;57.750;11.970;2023-07-28T13:47:08;1.40;;;1.30;;
14799;SDS011;7491;57.750;11.970;2023-07-28T13:49:35;2.08;;;1.30;;
14799;SDS011;7491;57.750;11.970;2023-07-28T13:52:04;2.05;;;1.42;;
14799;SDS011;7491;57.750;11.970;2023-07-28T13:54:32;2.75;;;1.42;;
14799;SDS011;7491;57.750;11.970;2023-07-28T13:56:59;2.47;;;1.30;;
14799;SDS011;7491;57.750;11.970;2023-07-28T13:59:26;1.50;;;1.40;;
14799;SDS011;7491;57.750;11.970;2023-07-28T14:01:52;2.63;;;1.67;;
14799;SDS011;7491;57.750;11.970;2023-07-28T14:04:20;1.98;;;1.50;;
14799;SDS011;7491;57.750;11.970;2023-07-28T14:06:47;1.30;;;1.20;;
14799;SDS011;7491;57.750;11.970;2023-07-28T14:09:15;1.90;;;1.45;;
14799;SDS011;7491;57.750;11.970;2023-07-28T14:11:42;1.30;;;1.20;;
14799;SDS011;7491;57.750;11.970;2023-07-28T14:14:11;1.55;;;1.45;;
14799;SDS011;7491;57.750;11.970;2023-07-28T14:16:38;1.63;;;1.30;;
14799;SDS011;7491;57.750;11.970;2023-07-28T14:19:05;1.60;;;1.30;;
14799;SDS011;7491;57.750;11.970;2023-07-28T14:21:32;2.22;;;1.05;;
14799;SDS011;7491;57.750;11.970;2023-07-28T14:23:59;1.10;;;1.10;;
14799;SDS011;7491;57.750;11.970;2023-07-28T14:26:27;1.10;;;1.00;;
14799;SDS011;7491;57.750;11.970;2023-07-28T14:28:54;1.25;;;1.15;;
14799;SDS011;7491;57.750;11.970;2023-07-28T14:31:20;1.20;;;1.10;;
14799;SDS011;7491;57.750;11.970;2023-07-28T14:33:47;1.48;;;1.38;;
14799;SDS011;7491;57.750;11.970;2023-07-28T14:36:15;1.55;;;1.20;;
14799;SDS011;7491;57.750;11.970;2023-07-28T14:38:42;1.23;;;1.10;;
14799;SDS011;7491;57.750;11.970;2023-07-28T14:41:09;3.00;;;1.35;;
14799;SDS011;7491;57.750;11.970;2023-07-28T14:43:38;1.23;;;1.13;;
14799;SDS011;7491;57.750;11.970;2023-07-28T14:46:05;2.08;;;1.20;;
14799;SDS011;7491;57.750;11.970;2023-07-28T14:48:32;3.60;;;1.67;;
14799;SDS011;7491;57.750;11.970;2023-07-28T14:51:00;5.55;;;1.60;;
14799;SDS011;7491;57.750;11.970;2023-07-28T14:53:30;3.17;;;1.40;;
14799;SDS011;7491;57.750;11.970;2023-07-28T14:55:59;1.25;;;1.15;;
14799;SDS011;7491;57.750;11.970;2023-07-28T14:58:26;2.05;;;1.42;;